KFBG/FBG METAR and TAF weather

Enter ICAO airport designator
Station Type Date Time Source
KFBG METAR 2021/08/02 00:56 UTC NOAA

KFBG 020056Z AUTO 23005KT 10SM BKN090 26/25 A2986 RMK AO2 SLP112 T02560254


Station Type Date Time Source
KFBG Decoded METAR 2021/08/02 00:56 UTC NOAA

Fort Bragg / Simmons Army Airfield, NC, United States (KFBG) 35-08N 078-56W 74M
Aug 01, 2021 - 08:56 PM EDT / 2021.08.02 0056 UTC
Wind: from the SW (230 degrees) at 6 MPH (5 KT):0
Visibility: 10 mile(s):0
Sky conditions: mostly cloudy
Temperature: 78.1 F (25.6 C)
Dew Point: 77.7 F (25.4 C)
Relative Humidity: 98%
Pressure (altimeter): 29.86 in. Hg (1011 hPa)
ob: KFBG 020056Z AUTO 23005KT 10SM BKN090 26/25 A2986 RMK AO2 SLP112 T02560254
cycle: 1

Station Type Date Time Source
KFBG TAF 2021/08/01 17:03 UTC NOAA

TAF KFBG 011700Z 0117/0223 24012KT 9999 VCTS FEW190CB QNH2981INS
TEMPO 0119/0201 VRB25G40KT 2400 TSRA FEW045CB FEW060 SCT090
BECMG 0201/0202 VRB06KT 9000 -SHRA BKN045 QNH2984INS
TEMPO 0202/0206 VRB15G25KT 9000 -TSRA BKN045CB OVC060
BECMG 0206/0207 VRB06KT 4800 BR FEW023 QNH2991INS TX35/0121Z TN21/0211Z

Example: see airport list